createdAt,value
2019-05-07T07:35:47.847Z,1013.09
2019-05-07T09:30:36.548Z,1012.98
2019-05-07T09:31:36.454Z,1013.00
2019-05-07T09:32:36.364Z,1012.96
2019-05-07T09:41:35.533Z,1012.88
2019-05-07T09:42:35.452Z,1012.97
2019-05-07T09:49:34.793Z,1012.82
2019-05-07T09:50:34.699Z,1012.81
2019-05-07T09:51:34.606Z,1012.92
2019-05-07T09:52:34.514Z,1012.87
2019-05-07T09:53:34.422Z,1012.86
2019-05-07T10:02:33.581Z,1012.92
2019-05-07T10:03:33.477Z,1012.91
2019-05-07T10:04:33.386Z,1012.87
2019-05-07T10:05:33.289Z,1012.83
2019-05-07T10:06:33.196Z,1012.84
2019-05-07T10:07:33.102Z,1012.85
2019-05-07T10:08:33.024Z,1012.84
2019-05-07T10:09:32.989Z,1012.85
2019-05-07T10:10:33.029Z,1012.90
2019-05-07T10:11:32.962Z,1012.68
2019-05-07T10:12:32.931Z,1012.88
2019-05-07T10:13:33.035Z,1012.89
2019-05-07T10:14:33.126Z,1012.84
2019-05-07T10:15:33.115Z,1012.90
2019-05-07T10:16:32.277Z,1012.86
2019-05-07T10:17:32.748Z,1012.85
2019-05-07T10:18:32.174Z,1012.79
2019-05-07T10:19:32.480Z,1012.86
2019-05-07T10:20:32.770Z,1012.68
2019-05-07T10:21:31.903Z,1012.69
2019-05-07T10:22:32.123Z,1012.63
2019-05-07T10:23:31.647Z,1012.65
2019-05-07T10:24:31.558Z,1012.82
2019-05-07T10:25:32.759Z,1012.70
2019-05-07T10:26:32.141Z,1012.63
2019-05-07T10:27:32.454Z,1012.66
2019-05-07T10:28:32.088Z,1012.64
2019-05-07T10:29:32.252Z,1012.64
2019-05-07T10:44:32.010Z,1012.63
2019-05-07T10:45:29.634Z,1012.65
2019-05-07T10:46:29.535Z,1012.60
2019-05-07T10:47:29.445Z,1012.60
2019-05-07T12:26:22.147Z,1011.98
2019-05-07T12:27:19.835Z,1011.95
